sensor_id;sensor_type;location;lat;lon;timestamp;temperature;humidity
21495;DHT22;10909;53.590;10.054;2022-09-27T00:00:31;14.40;77.60
21495;DHT22;10909;53.590;10.054;2022-09-27T00:02:57;14.40;77.50
21495;DHT22;10909;53.590;10.054;2022-09-27T00:05:23;14.30;77.40
21495;DHT22;10909;53.590;10.054;2022-09-27T00:07:49;14.40;77.30
21495;DHT22;10909;53.590;10.054;2022-09-27T00:10:14;14.30;77.40
21495;DHT22;10909;53.590;10.054;2022-09-27T00:12:40;14.30;77.50
21495;DHT22;10909;53.590;10.054;2022-09-27T00:15:07;14.30;77.70
21495;DHT22;10909;53.590;10.054;2022-09-27T00:17:35;14.30;77.70
21495;DHT22;10909;53.590;10.054;2022-09-27T00:20:02;14.30;77.60
21495;DHT22;10909;53.590;10.054;2022-09-27T00:22:28;14.30;77.50
21495;DHT22;10909;53.590;10.054;2022-09-27T00:24:53;14.30;77.50
21495;DHT22;10909;53.590;10.054;2022-09-27T00:27:19;14.30;77.60
21495;DHT22;10909;53.590;10.054;2022-09-27T00:29:45;14.30;77.70
21495;DHT22;10909;53.590;10.054;2022-09-27T00:32:12;14.30;77.70
21495;DHT22;10909;53.590;10.054;2022-09-27T00:34:38;14.30;77.90
21495;DHT22;10909;53.590;10.054;2022-09-27T00:37:04;14.30;77.80
21495;DHT22;10909;53.590;10.054;2022-09-27T00:39:30;14.30;77.90
21495;DHT22;10909;53.590;10.054;2022-09-27T00:41:57;14.30;77.90
21495;DHT22;10909;53.590;10.054;2022-09-27T00:47:10;14.30;77.90
21495;DHT22;10909;53.590;10.054;2022-09-27T00:49:37;14.30;77.90
21495;DHT22;10909;53.590;10.054;2022-09-27T00:52:09;14.30;77.90
21495;DHT22;10909;53.590;10.054;2022-09-27T00:54:38;14.30;78.10
21495;DHT22;10909;53.590;10.054;2022-09-27T00:57:05;14.30;77.90
21495;DHT22;10909;53.590;10.054;2022-09-27T00:59:44;14.30;77.90
21495;DHT22;10909;53.590;10.054;2022-09-27T01:02:11;14.30;78.10
21495;DHT22;10909;53.590;10.054;2022-09-27T01:04:38;14.30;78.00
21495;DHT22;10909;53.590;10.054;2022-09-27T01:07:05;14.30;78.10
21495;DHT22;10909;53.590;10.054;2022-09-27T01:09:31;14.30;78.10
21495;DHT22;10909;53.590;10.054;2022-09-27T01:12:22;14.40;78.20
21495;DHT22;10909;53.590;10.054;2022-09-27T01:14:59;14.40;78.50
21495;DHT22;10909;53.590;10.054;2022-09-27T01:33:46;14.40;78.30
21495;DHT22;10909;53.590;10.054;2022-09-27T01:41:30;14.40;78.20
21495;DHT22;10909;53.590;10.054;2022-09-27T01:44:10;14.40;78.00
21495;DHT22;10909;53.590;10.054;2022-09-27T01:46:45;14.40;78.30
21495;DHT22;10909;53.590;10.054;2022-09-27T01:49:17;14.40;78.00
21495;DHT22;10909;53.590;10.054;2022-09-27T01:51:47;14.30;77.90
21495;DHT22;10909;53.590;10.054;2022-09-27T01:54:24;14.30;78.00
21495;DHT22;10909;53.590;10.054;2022-09-27T01:56:54;14.30;78.10
21495;DHT22;10909;53.590;10.054;2022-09-27T01:59:31;14.30;78.90
21495;DHT22;10909;53.590;10.054;2022-09-27T02:02:08;14.30;78.10
21495;DHT22;10909;53.590;10.054;2022-09-27T02:04:37;14.30;78.20
21495;DHT22;10909;53.590;10.054;2022-09-27T02:07:10;14.30;78.30
21495;DHT22;10909;53.590;10.054;2022-09-27T02:09:50;14.30;78.30
21495;DHT22;10909;53.590;10.054;2022-09-27T02:12:23;14.30;78.30
21495;DHT22;10909;53.590;10.054;2022-09-27T02:14:55;14.30;78.20
21495;DHT22;10909;53.590;10.054;2022-09-27T02:23:15;14.30;78.50
21495;DHT22;10909;53.590;10.054;2022-09-27T02:30:51;14.30;78.50
21495;DHT22;10909;53.590;10.054;2022-09-27T02:33:23;14.30;78.30
21495;DHT22;10909;53.590;10.054;2022-09-27T02:35:48;14.30;78.40
21495;DHT22;10909;53.590;10.054;2022-09-27T02:38:14;14.40;78.50
21495;DHT22;10909;53.590;10.054;2022-09-27T02:40:43;14.40;78.60
21495;DHT22;10909;53.590;10.054;2022-09-27T02:43:09;14.40;78.60
21495;DHT22;10909;53.590;10.054;2022-09-27T02:48:58;14.40;78.80
21495;DHT22;10909;53.590;10.054;2022-09-27T02:57:12;14.40;78.60
21495;DHT22;10909;53.590;10.054;2022-09-27T02:59:40;14.40;78.60
21495;DHT22;10909;53.590;10.054;2022-09-27T03:07:18;14.40;78.50
21495;DHT22;10909;53.590;10.054;2022-09-27T03:09:46;14.40;78.50
21495;DHT22;10909;53.590;10.054;2022-09-27T03:12:13;14.40;78.60
21495;DHT22;10909;53.590;10.054;2022-09-27T03:14:44;14.40;78.70
21495;DHT22;10909;53.590;10.054;2022-09-27T03:17:11;14.40;78.80
21495;DHT22;10909;53.590;10.054;2022-09-27T03:19:36;14.40;78.70
21495;DHT22;10909;53.590;10.054;2022-09-27T03:22:02;14.40;78.80
21495;DHT22;10909;53.590;10.054;2022-09-27T03:24:28;14.40;78.80
21495;DHT22;10909;53.590;10.054;2022-09-27T03:26:53;14.40;78.80
21495;DHT22;10909;53.590;10.054;2022-09-27T03:29:19;14.40;78.70
21495;DHT22;10909;53.590;10.054;2022-09-27T03:31:45;14.40;78.80
21495;DHT22;10909;53.590;10.054;2022-09-27T03:34:10;14.40;78.80
21495;DHT22;10909;53.590;10.054;2022-09-27T03:36:36;14.40;78.80
21495;DHT22;10909;53.590;10.054;2022-09-27T03:39:02;14.40;78.90
21495;DHT22;10909;53.590;10.054;2022-09-27T03:41:27;14.40;79.70
21495;DHT22;10909;53.590;10.054;2022-09-27T03:43:53;14.40;78.80
21495;DHT22;10909;53.590;10.054;2022-09-27T03:46:22;14.40;78.80
21495;DHT22;10909;53.590;10.054;2022-09-27T03:48:48;14.40;78.80
21495;DHT22;10909;53.590;10.054;2022-09-27T03:51:13;14.40;78.90
21495;DHT22;10909;53.590;10.054;2022-09-27T03:53:39;14.40;78.80
21495;DHT22;10909;53.590;10.054;2022-09-27T03:56:05;14.40;78.80
21495;DHT22;10909;53.590;10.054;2022-09-27T03:58:30;14.40;78.90
21495;DHT22;10909;53.590;10.054;2022-09-27T04:00:56;14.40;78.80
21495;DHT22;10909;53.590;10.054;2022-09-27T04:03:21;14.40;78.90
21495;DHT22;10909;53.590;10.054;2022-09-27T04:05:47;14.40;78.90
21495;DHT22;10909;53.590;10.054;2022-09-27T04:08:13;14.40;78.90
21495;DHT22;10909;53.590;10.054;2022-09-27T04:10:40;14.40;79.00
21495;DHT22;10909;53.590;10.054;2022-09-27T04:13:06;14.40;79.00
21495;DHT22;10909;53.590;10.054;2022-09-27T04:15:32;14.40;78.90
21495;DHT22;10909;53.590;10.054;2022-09-27T04:17:57;14.40;78.90
21495;DHT22;10909;53.590;10.054;2022-09-27T04:20:23;14.40;78.90
21495;DHT22;10909;53.590;10.054;2022-09-27T04:22:49;14.40;79.00
21495;DHT22;10909;53.590;10.054;2022-09-27T04:25:15;14.40;79.00
21495;DHT22;10909;53.590;10.054;2022-09-27T04:27:45;14.40;79.00
21495;DHT22;10909;53.590;10.054;2022-09-27T04:30:11;14.40;79.00
21495;DHT22;10909;53.590;10.054;2022-09-27T04:32:41;14.40;78.90
21495;DHT22;10909;53.590;10.054;2022-09-27T04:35:08;14.40;79.10
21495;DHT22;10909;53.590;10.054;2022-09-27T04:37:53;14.40;79.00
21495;DHT22;10909;53.590;10.054;2022-09-27T04:40:18;14.40;79.00
21495;DHT22;10909;53.590;10.054;2022-09-27T04:42:46;14.40;79.10
21495;DHT22;10909;53.590;10.054;2022-09-27T04:45:12;14.40;79.10
21495;DHT22;10909;53.590;10.054;2022-09-27T04:47:42;14.40;79.00
21495;DHT22;10909;53.590;10.054;2022-09-27T04:50:09;14.40;79.10
21495;DHT22;10909;53.590;10.054;2022-09-27T04:52:35;14.40;79.10
21495;DHT22;10909;53.590;10.054;2022-09-27T04:55:02;14.40;79.10
21495;DHT22;10909;53.590;10.054;2022-09-27T04:57:27;14.40;79.20
21495;DHT22;10909;53.590;10.054;2022-09-27T04:59:53;14.40;79.10
21495;DHT22;10909;53.590;10.054;2022-09-27T05:02:18;14.40;79.20
21495;DHT22;10909;53.590;10.054;2022-09-27T05:04:44;14.40;79.20
21495;DHT22;10909;53.590;10.054;2022-09-27T05:07:11;14.50;79.40
21495;DHT22;10909;53.590;10.054;2022-09-27T05:09:37;14.50;79.50
21495;DHT22;10909;53.590;10.054;2022-09-27T05:12:02;14.50;79.40
21495;DHT22;10909;53.590;10.054;2022-09-27T05:14:33;14.50;79.40
21495;DHT22;10909;53.590;10.054;2022-09-27T05:16:59;14.50;79.40
21495;DHT22;10909;53.590;10.054;2022-09-27T05:19:24;14.50;79.40
21495;DHT22;10909;53.590;10.054;2022-09-27T05:21:50;14.50;79.40
21495;DHT22;10909;53.590;10.054;2022-09-27T05:24:16;14.50;80.00
21495;DHT22;10909;53.590;10.054;2022-09-27T05:26:41;14.50;79.20
21495;DHT22;10909;53.590;10.054;2022-09-27T05:29:07;14.50;79.30
21495;DHT22;10909;53.590;10.054;2022-09-27T05:31:33;14.50;79.20
21495;DHT22;10909;53.590;10.054;2022-09-27T05:33:58;14.50;79.30
21495;DHT22;10909;53.590;10.054;2022-09-27T05:36:24;14.50;79.40
21495;DHT22;10909;53.590;10.054;2022-09-27T05:38:50;14.50;79.30
21495;DHT22;10909;53.590;10.054;2022-09-27T05:41:15;14.50;79.20
21495;DHT22;10909;53.590;10.054;2022-09-27T05:43:41;14.50;79.20
21495;DHT22;10909;53.590;10.054;2022-09-27T05:46:07;14.50;79.10
21495;DHT22;10909;53.590;10.054;2022-09-27T05:48:33;14.50;79.10
21495;DHT22;10909;53.590;10.054;2022-09-27T05:50:58;14.50;79.10
21495;DHT22;10909;53.590;10.054;2022-09-27T05:53:26;14.50;79.10
21495;DHT22;10909;53.590;10.054;2022-09-27T05:55:51;14.50;79.10
21495;DHT22;10909;53.590;10.054;2022-09-27T05:58:17;14.50;79.00
21495;DHT22;10909;53.590;10.054;2022-09-27T06:00:43;14.50;79.10
21495;DHT22;10909;53.590;10.054;2022-09-27T06:03:10;14.50;79.80
21495;DHT22;10909;53.590;10.054;2022-09-27T06:05:37;14.50;79.10
21495;DHT22;10909;53.590;10.054;2022-09-27T06:08:08;14.50;79.10
21495;DHT22;10909;53.590;10.054;2022-09-27T06:10:35;14.50;80.10
21495;DHT22;10909;53.590;10.054;2022-09-27T06:13:10;14.50;79.10
21495;DHT22;10909;53.590;10.054;2022-09-27T06:15:37;14.50;79.20
21495;DHT22;10909;53.590;10.054;2022-09-27T06:18:09;14.50;79.20
21495;DHT22;10909;53.590;10.054;2022-09-27T06:20:37;14.50;79.20
21495;DHT22;10909;53.590;10.054;2022-09-27T06:23:14;14.50;79.30
21495;DHT22;10909;53.590;10.054;2022-09-27T06:25:40;14.50;79.60
21495;DHT22;10909;53.590;10.054;2022-09-27T06:28:06;14.50;79.40
21495;DHT22;10909;53.590;10.054;2022-09-27T06:30:41;14.50;79.40
21495;DHT22;10909;53.590;10.054;2022-09-27T06:33:11;14.50;79.40
21495;DHT22;10909;53.590;10.054;2022-09-27T06:35:38;14.50;79.40
21495;DHT22;10909;53.590;10.054;2022-09-27T06:38:05;14.50;79.50
21495;DHT22;10909;53.590;10.054;2022-09-27T06:40:35;14.50;79.50
21495;DHT22;10909;53.590;10.054;2022-09-27T06:43:08;14.50;79.40
21495;DHT22;10909;53.590;10.054;2022-09-27T06:45:36;14.50;79.20
21495;DHT22;10909;53.590;10.054;2022-09-27T06:48:02;14.50;79.10
21495;DHT22;10909;53.590;10.054;2022-09-27T06:50:32;14.50;79.00
21495;DHT22;10909;53.590;10.054;2022-09-27T06:52:59;14.40;78.90
21495;DHT22;10909;53.590;10.054;2022-09-27T06:55:25;14.40;78.90
21495;DHT22;10909;53.590;10.054;2022-09-27T06:57:57;14.40;79.00
21495;DHT22;10909;53.590;10.054;2022-09-27T07:00:42;14.40;79.00
21495;DHT22;10909;53.590;10.054;2022-09-27T07:03:11;14.40;79.00
21495;DHT22;10909;53.590;10.054;2022-09-27T07:05:38;14.30;78.90
21495;DHT22;10909;53.590;10.054;2022-09-27T07:08:05;14.30;78.90
21495;DHT22;10909;53.590;10.054;2022-09-27T07:10:34;14.30;79.10
21495;DHT22;10909;53.590;10.054;2022-09-27T07:13:06;14.20;79.20
21495;DHT22;10909;53.590;10.054;2022-09-27T07:15:33;14.20;79.10
21495;DHT22;10909;53.590;10.054;2022-09-27T07:18:05;14.20;79.00
21495;DHT22;10909;53.590;10.054;2022-09-27T07:20:32;14.20;78.90
21495;DHT22;10909;53.590;10.054;2022-09-27T07:22:58;14.10;78.90
21495;DHT22;10909;53.590;10.054;2022-09-27T07:25:25;14.10;79.00
21495;DHT22;10909;53.590;10.054;2022-09-27T07:27:51;14.00;79.10
21495;DHT22;10909;53.590;10.054;2022-09-27T07:30:20;14.00;79.10
21495;DHT22;10909;53.590;10.054;2022-09-27T07:32:46;14.00;79.10
21495;DHT22;10909;53.590;10.054;2022-09-27T07:35:12;13.90;79.40
21495;DHT22;10909;53.590;10.054;2022-09-27T07:37:41;13.80;79.30
21495;DHT22;10909;53.590;10.054;2022-09-27T07:40:08;13.80;79.70
21495;DHT22;10909;53.590;10.054;2022-09-27T07:42:37;13.80;79.70
21495;DHT22;10909;53.590;10.054;2022-09-27T07:45:06;13.80;79.90
21495;DHT22;10909;53.590;10.054;2022-09-27T07:47:33;13.80;80.10
21495;DHT22;10909;53.590;10.054;2022-09-27T07:49:59;13.80;80.10
21495;DHT22;10909;53.590;10.054;2022-09-27T07:52:24;13.80;80.10
21495;DHT22;10909;53.590;10.054;2022-09-27T07:54:50;13.80;80.10
21495;DHT22;10909;53.590;10.054;2022-09-27T07:57:16;13.90;80.40
21495;DHT22;10909;53.590;10.054;2022-09-27T07:59:45;13.90;80.50
21495;DHT22;10909;53.590;10.054;2022-09-27T08:02:13;13.90;80.70
21495;DHT22;10909;53.590;10.054;2022-09-27T08:04:40;14.00;80.70
21495;DHT22;10909;53.590;10.054;2022-09-27T08:07:08;14.10;80.90
21495;DHT22;10909;53.590;10.054;2022-09-27T08:09:34;14.10;80.80
21495;DHT22;10909;53.590;10.054;2022-09-27T08:12:00;14.10;80.80
21495;DHT22;10909;53.590;10.054;2022-09-27T08:14:29;14.20;80.80
21495;DHT22;10909;53.590;10.054;2022-09-27T08:16:54;14.20;80.60
21495;DHT22;10909;53.590;10.054;2022-09-27T08:19:20;14.30;80.50
21495;DHT22;10909;53.590;10.054;2022-09-27T08:21:46;14.30;80.50
21495;DHT22;10909;53.590;10.054;2022-09-27T08:24:12;14.30;80.50
21495;DHT22;10909;53.590;10.054;2022-09-27T08:26:39;14.40;80.40
21495;DHT22;10909;53.590;10.054;2022-09-27T08:29:05;14.40;80.50
21495;DHT22;10909;53.590;10.054;2022-09-27T08:31:31;14.40;80.60
21495;DHT22;10909;53.590;10.054;2022-09-27T08:33:56;14.40;80.50
21495;DHT22;10909;53.590;10.054;2022-09-27T08:36:23;14.50;80.50
21495;DHT22;10909;53.590;10.054;2022-09-27T08:38:49;14.50;80.30
21495;DHT22;10909;53.590;10.054;2022-09-27T08:47:00;14.60;80.50
21495;DHT22;10909;53.590;10.054;2022-09-27T08:52:06;14.60;80.10
21495;DHT22;10909;53.590;10.054;2022-09-27T08:54:34;14.60;80.10
21495;DHT22;10909;53.590;10.054;2022-09-27T08:57:09;14.60;80.20
21495;DHT22;10909;53.590;10.054;2022-09-27T08:59:41;14.60;80.00
21495;DHT22;10909;53.590;10.054;2022-09-27T09:02:18;14.60;79.90
21495;DHT22;10909;53.590;10.054;2022-09-27T09:04:47;14.60;79.80
21495;DHT22;10909;53.590;10.054;2022-09-27T09:13:33;14.50;79.80
21495;DHT22;10909;53.590;10.054;2022-09-27T09:25:11;14.20;79.40
21495;DHT22;10909;53.590;10.054;2022-09-27T09:30:22;14.10;80.20
21495;DHT22;10909;53.590;10.054;2022-09-27T09:33:13;14.00;80.30
21495;DHT22;10909;53.590;10.054;2022-09-27T09:35:48;14.00;80.30
21495;DHT22;10909;53.590;10.054;2022-09-27T09:38:22;13.90;80.30
21495;DHT22;10909;53.590;10.054;2022-09-27T09:41:14;13.90;80.50
21495;DHT22;10909;53.590;10.054;2022-09-27T09:43:54;13.90;80.80
21495;DHT22;10909;53.590;10.054;2022-09-27T09:46:42;13.90;81.60
21495;DHT22;10909;53.590;10.054;2022-09-27T09:49:23;13.90;81.10
21495;DHT22;10909;53.590;10.054;2022-09-27T09:51:57;13.80;80.90
21495;DHT22;10909;53.590;10.054;2022-09-27T09:54:39;13.80;81.00
21495;DHT22;10909;53.590;10.054;2022-09-27T09:59:58;13.80;81.30
21495;DHT22;10909;53.590;10.054;2022-09-27T10:02:37;13.80;81.20
21495;DHT22;10909;53.590;10.054;2022-09-27T10:05:05;13.80;81.40
21495;DHT22;10909;53.590;10.054;2022-09-27T10:07:33;13.80;81.30
21495;DHT22;10909;53.590;10.054;2022-09-27T10:10:04;13.80;81.20
21495;DHT22;10909;53.590;10.054;2022-09-27T10:12:31;13.80;81.20
21495;DHT22;10909;53.590;10.054;2022-09-27T10:15:00;13.80;81.20
21495;DHT22;10909;53.590;10.054;2022-09-27T10:17:37;13.80;81.40
21495;DHT22;10909;53.590;10.054;2022-09-27T10:20:04;13.80;81.60
21495;DHT22;10909;53.590;10.054;2022-09-27T10:22:41;13.80;81.50
21495;DHT22;10909;53.590;10.054;2022-09-27T10:25:09;13.80;81.60
21495;DHT22;10909;53.590;10.054;2022-09-27T10:27:50;13.80;81.70
21495;DHT22;10909;53.590;10.054;2022-09-27T10:32:52;13.80;81.90
21495;DHT22;10909;53.590;10.054;2022-09-27T10:40:43;13.80;82.60
21495;DHT22;10909;53.590;10.054;2022-09-27T10:43:30;13.90;82.20
21495;DHT22;10909;53.590;10.054;2022-09-27T10:48:27;13.90;82.50
21495;DHT22;10909;53.590;10.054;2022-09-27T10:50:58;13.90;82.50
21495;DHT22;10909;53.590;10.054;2022-09-27T10:53:28;14.00;82.60
21495;DHT22;10909;53.590;10.054;2022-09-27T10:55:55;14.00;82.70
21495;DHT22;10909;53.590;10.054;2022-09-27T10:58:33;14.00;82.70
21495;DHT22;10909;53.590;10.054;2022-09-27T11:01:05;14.10;82.80
21495;DHT22;10909;53.590;10.054;2022-09-27T11:03:35;14.10;83.60
21495;DHT22;10909;53.590;10.054;2022-09-27T11:08:47;14.30;83.10
21495;DHT22;10909;53.590;10.054;2022-09-27T11:13:40;14.40;83.30
21495;DHT22;10909;53.590;10.054;2022-09-27T11:19:06;14.50;83.00
21495;DHT22;10909;53.590;10.054;2022-09-27T11:24:44;14.60;82.80
21495;DHT22;10909;53.590;10.054;2022-09-27T11:30:23;14.70;82.50
21495;DHT22;10909;53.590;10.054;2022-09-27T11:33:26;14.70;82.30
21495;DHT22;10909;53.590;10.054;2022-09-27T11:38:40;14.80;82.60
21495;DHT22;10909;53.590;10.054;2022-09-27T11:46:35;14.70;81.60
21495;DHT22;10909;53.590;10.054;2022-09-27T11:49:27;14.70;81.60
21495;DHT22;10909;53.590;10.054;2022-09-27T11:55:20;14.70;81.60
21495;DHT22;10909;53.590;10.054;2022-09-27T12:00:45;14.70;81.70
21495;DHT22;10909;53.590;10.054;2022-09-27T12:14:35;14.90;82.90
21495;DHT22;10909;53.590;10.054;2022-09-27T12:16:55;14.90;83.00
21495;DHT22;10909;53.590;10.054;2022-09-27T12:19:31;15.00;82.80
21495;DHT22;10909;53.590;10.054;2022-09-27T12:22:02;15.10;82.70
21495;DHT22;10909;53.590;10.054;2022-09-27T12:24:29;15.20;82.90
21495;DHT22;10909;53.590;10.054;2022-09-27T12:27:07;15.20;82.90
21495;DHT22;10909;53.590;10.054;2022-09-27T12:29:38;15.30;82.90
21495;DHT22;10909;53.590;10.054;2022-09-27T12:32:25;15.40;83.00
21495;DHT22;10909;53.590;10.054;2022-09-27T12:35:12;15.50;82.70
21495;DHT22;10909;53.590;10.054;2022-09-27T12:37:47;15.60;82.30
21495;DHT22;10909;53.590;10.054;2022-09-27T12:43:15;15.70;82.60
21495;DHT22;10909;53.590;10.054;2022-09-27T12:52:14;16.10;82.50
21495;DHT22;10909;53.590;10.054;2022-09-27T13:00:49;16.30;80.70
21495;DHT22;10909;53.590;10.054;2022-09-27T13:22:58;16.10;79.40
21495;DHT22;10909;53.590;10.054;2022-09-27T13:31:08;16.00;79.60
21495;DHT22;10909;53.590;10.054;2022-09-27T13:33:52;15.90;79.70
21495;DHT22;10909;53.590;10.054;2022-09-27T13:36:23;15.90;79.20
21495;DHT22;10909;53.590;10.054;2022-09-27T13:46:57;15.70;79.40
21495;DHT22;10909;53.590;10.054;2022-09-27T13:49:30;15.80;80.40
21495;DHT22;10909;53.590;10.054;2022-09-27T13:52:01;15.70;80.40
21495;DHT22;10909;53.590;10.054;2022-09-27T13:57:00;15.80;80.10
21495;DHT22;10909;53.590;10.054;2022-09-27T13:59:44;15.80;80.30
21495;DHT22;10909;53.590;10.054;2022-09-27T14:02:28;15.80;80.70
21495;DHT22;10909;53.590;10.054;2022-09-27T14:04:58;15.90;81.30
21495;DHT22;10909;53.590;10.054;2022-09-27T14:07:29;16.00;81.40
21495;DHT22;10909;53.590;10.054;2022-09-27T14:09:59;16.10;80.90
21495;DHT22;10909;53.590;10.054;2022-09-27T14:12:37;16.20;80.20
21495;DHT22;10909;53.590;10.054;2022-09-27T14:15:06;16.20;78.70
21495;DHT22;10909;53.590;10.054;2022-09-27T14:17:33;16.20;78.20
21495;DHT22;10909;53.590;10.054;2022-09-27T14:19:59;16.10;78.20
21495;DHT22;10909;53.590;10.054;2022-09-27T14:22:25;16.00;78.00
21495;DHT22;10909;53.590;10.054;2022-09-27T14:24:52;16.00;78.20
21495;DHT22;10909;53.590;10.054;2022-09-27T14:27:27;15.90;78.20
21495;DHT22;10909;53.590;10.054;2022-09-27T14:32:53;15.90;78.40
21495;DHT22;10909;53.590;10.054;2022-09-27T14:35:22;15.80;78.30
21495;DHT22;10909;53.590;10.054;2022-09-27T14:38:18;15.70;78.90
21495;DHT22;10909;53.590;10.054;2022-09-27T14:41:05;15.70;79.10
21495;DHT22;10909;53.590;10.054;2022-09-27T14:43:40;15.70;78.60
21495;DHT22;10909;53.590;10.054;2022-09-27T14:46:19;15.70;78.70
21495;DHT22;10909;53.590;10.054;2022-09-27T14:48:46;15.70;78.70
21495;DHT22;10909;53.590;10.054;2022-09-27T14:53:45;15.50;78.20
21495;DHT22;10909;53.590;10.054;2022-09-27T14:56:20;15.50;78.20
21495;DHT22;10909;53.590;10.054;2022-09-27T14:58:50;15.40;78.30
21495;DHT22;10909;53.590;10.054;2022-09-27T15:01:18;15.30;78.50
21495;DHT22;10909;53.590;10.054;2022-09-27T15:03:48;15.30;78.70
21495;DHT22;10909;53.590;10.054;2022-09-27T15:06:15;15.20;78.90
21495;DHT22;10909;53.590;10.054;2022-09-27T15:08:41;15.20;78.90
21495;DHT22;10909;53.590;10.054;2022-09-27T15:11:10;15.20;79.00
21495;DHT22;10909;53.590;10.054;2022-09-27T15:13:36;15.10;79.10
21495;DHT22;10909;53.590;10.054;2022-09-27T15:16:13;15.10;79.40
21495;DHT22;10909;53.590;10.054;2022-09-27T15:18:43;15.10;79.60
21495;DHT22;10909;53.590;10.054;2022-09-27T15:21:15;15.00;79.80
21495;DHT22;10909;53.590;10.054;2022-09-27T15:23:51;15.00;79.70
21495;DHT22;10909;53.590;10.054;2022-09-27T15:26:18;15.00;79.80
21495;DHT22;10909;53.590;10.054;2022-09-27T15:28:48;14.90;79.70
21495;DHT22;10909;53.590;10.054;2022-09-27T15:31:15;15.00;79.80
21495;DHT22;10909;53.590;10.054;2022-09-27T15:33:41;14.90;80.00
21495;DHT22;10909;53.590;10.054;2022-09-27T15:36:10;14.90;80.00
21495;DHT22;10909;53.590;10.054;2022-09-27T15:41:09;14.90;80.00
21495;DHT22;10909;53.590;10.054;2022-09-27T15:43:40;14.90;79.80
21495;DHT22;10909;53.590;10.054;2022-09-27T15:46:34;14.90;80.00
21495;DHT22;10909;53.590;10.054;2022-09-27T15:49:19;14.90;79.80
21495;DHT22;10909;53.590;10.054;2022-09-27T15:51:50;14.90;79.80
21495;DHT22;10909;53.590;10.054;2022-09-27T15:54:17;14.90;79.70
21495;DHT22;10909;53.590;10.054;2022-09-27T15:56:44;14.90;79.90
21495;DHT22;10909;53.590;10.054;2022-09-27T15:59:27;14.90;80.10
21495;DHT22;10909;53.590;10.054;2022-09-27T16:01:58;14.90;79.80
21495;DHT22;10909;53.590;10.054;2022-09-27T16:04:24;14.90;80.00
21495;DHT22;10909;53.590;10.054;2022-09-27T16:06:51;14.90;80.00
21495;DHT22;10909;53.590;10.054;2022-09-27T16:09:18;14.90;80.10
21495;DHT22;10909;53.590;10.054;2022-09-27T16:11:48;14.90;80.10
21495;DHT22;10909;53.590;10.054;2022-09-27T16:14:15;14.90;79.80
21495;DHT22;10909;53.590;10.054;2022-09-27T16:16:52;14.90;79.80
21495;DHT22;10909;53.590;10.054;2022-09-27T16:19:18;14.90;79.60
21495;DHT22;10909;53.590;10.054;2022-09-27T16:21:44;14.90;79.60
21495;DHT22;10909;53.590;10.054;2022-09-27T16:24:12;14.80;79.60
21495;DHT22;10909;53.590;10.054;2022-09-27T16:26:38;14.80;79.70
21495;DHT22;10909;53.590;10.054;2022-09-27T16:29:08;14.80;79.50
21495;DHT22;10909;53.590;10.054;2022-09-27T16:31:35;14.80;79.50
21495;DHT22;10909;53.590;10.054;2022-09-27T16:34:01;14.80;79.40
21495;DHT22;10909;53.590;10.054;2022-09-27T16:36:27;14.70;79.40
21495;DHT22;10909;53.590;10.054;2022-09-27T16:38:53;14.70;79.50
21495;DHT22;10909;53.590;10.054;2022-09-27T16:41:20;14.70;79.50
21495;DHT22;10909;53.590;10.054;2022-09-27T16:43:47;14.70;79.70
21495;DHT22;10909;53.590;10.054;2022-09-27T16:46:14;14.60;79.60
21495;DHT22;10909;53.590;10.054;2022-09-27T16:48:43;14.60;79.80
21495;DHT22;10909;53.590;10.054;2022-09-27T16:51:20;14.60;80.00
21495;DHT22;10909;53.590;10.054;2022-09-27T16:54:06;14.60;80.10
21495;DHT22;10909;53.590;10.054;2022-09-27T16:56:34;14.70;80.10
21495;DHT22;10909;53.590;10.054;2022-09-27T16:59:02;14.70;80.20
21495;DHT22;10909;53.590;10.054;2022-09-27T17:01:29;14.70;80.20
21495;DHT22;10909;53.590;10.054;2022-09-27T17:03:54;14.70;80.10
21495;DHT22;10909;53.590;10.054;2022-09-27T17:06:22;14.70;80.20
21495;DHT22;10909;53.590;10.054;2022-09-27T17:08:49;14.70;80.20
21495;DHT22;10909;53.590;10.054;2022-09-27T17:11:16;14.70;80.10
21495;DHT22;10909;53.590;10.054;2022-09-27T17:13:43;14.70;80.10
21495;DHT22;10909;53.590;10.054;2022-09-27T17:16:10;14.70;80.20
21495;DHT22;10909;53.590;10.054;2022-09-27T17:18:37;14.70;80.10
21495;DHT22;10909;53.590;10.054;2022-09-27T17:21:04;14.70;80.10
21495;DHT22;10909;53.590;10.054;2022-09-27T17:23:31;14.80;80.10
21495;DHT22;10909;53.590;10.054;2022-09-27T17:28:30;14.70;80.00
21495;DHT22;10909;53.590;10.054;2022-09-27T17:31:04;14.70;80.00
21495;DHT22;10909;53.590;10.054;2022-09-27T17:33:32;14.70;79.90
21495;DHT22;10909;53.590;10.054;2022-09-27T17:36:01;14.70;79.90
21495;DHT22;10909;53.590;10.054;2022-09-27T17:38:28;14.70;80.00
21495;DHT22;10909;53.590;10.054;2022-09-27T17:41:02;14.70;79.90
21495;DHT22;10909;53.590;10.054;2022-09-27T17:43:28;14.70;79.80
21495;DHT22;10909;53.590;10.054;2022-09-27T17:46:11;14.60;80.50
21495;DHT22;10909;53.590;10.054;2022-09-27T17:48:37;14.60;79.50
21495;DHT22;10909;53.590;10.054;2022-09-27T17:51:22;14.60;79.60
21495;DHT22;10909;53.590;10.054;2022-09-27T17:53:48;14.50;79.50
21495;DHT22;10909;53.590;10.054;2022-09-27T17:56:14;14.50;79.60
21495;DHT22;10909;53.590;10.054;2022-09-27T17:58:50;14.50;79.50
21495;DHT22;10909;53.590;10.054;2022-09-27T18:01:17;14.40;79.40
21495;DHT22;10909;53.590;10.054;2022-09-27T18:03:43;14.40;80.20
21495;DHT22;10909;53.590;10.054;2022-09-27T18:06:11;14.40;79.60
21495;DHT22;10909;53.590;10.054;2022-09-27T18:08:37;14.30;79.50
21495;DHT22;10909;53.590;10.054;2022-09-27T18:11:11;14.30;79.50
21495;DHT22;10909;53.590;10.054;2022-09-27T18:13:38;14.30;79.60
21495;DHT22;10909;53.590;10.054;2022-09-27T18:16:11;14.20;79.60
21495;DHT22;10909;53.590;10.054;2022-09-27T18:18:39;14.20;79.60
21495;DHT22;10909;53.590;10.054;2022-09-27T18:21:10;14.20;79.80
21495;DHT22;10909;53.590;10.054;2022-09-27T18:23:37;14.20;79.80
21495;DHT22;10909;53.590;10.054;2022-09-27T18:26:04;14.10;79.80
21495;DHT22;10909;53.590;10.054;2022-09-27T18:28:37;14.10;80.00
21495;DHT22;10909;53.590;10.054;2022-09-27T18:31:11;14.10;80.00
21495;DHT22;10909;53.590;10.054;2022-09-27T18:33:38;14.10;80.00
21495;DHT22;10909;53.590;10.054;2022-09-27T18:36:16;14.00;80.00
21495;DHT22;10909;53.590;10.054;2022-09-27T18:38:51;14.10;80.20
21495;DHT22;10909;53.590;10.054;2022-09-27T18:41:18;14.00;80.30